sensor_id;sensor_type;location;lat;lon;timestamp;P1;durP1;ratioP1;P2;durP2;ratioP2
15246;SDS011;7726;48.820;9.248;2023-04-01T00:00:02;2.53;;;0.90;;
15246;SDS011;7726;48.820;9.248;2023-04-01T00:02:31;1.50;;;0.50;;
15246;SDS011;7726;48.820;9.248;2023-04-01T00:04:59;0.80;;;0.73;;
15246;SDS011;7726;48.820;9.248;2023-04-01T00:07:26;0.87;;;0.60;;
15246;SDS011;7726;48.820;9.248;2023-04-01T00:09:53;1.33;;;0.50;;
15246;SDS011;7726;48.820;9.248;2023-04-01T00:12:21;2.77;;;0.80;;
15246;SDS011;7726;48.820;9.248;2023-04-01T00:14:50;1.13;;;0.50;;
15246;SDS011;7726;48.820;9.248;2023-04-01T00:17:17;2.27;;;0.70;;
15246;SDS011;7726;48.820;9.248;2023-04-01T00:19:45;1.30;;;0.70;;
15246;SDS011;7726;48.820;9.248;2023-04-01T00:22:13;2.87;;;0.80;;
15246;SDS011;7726;48.820;9.248;2023-04-01T00:24:40;2.70;;;0.60;;
15246;SDS011;7726;48.820;9.248;2023-04-01T00:27:07;0.77;;;0.60;;
15246;SDS011;7726;48.820;9.248;2023-04-01T00:29:34;1.67;;;0.67;;
15246;SDS011;7726;48.820;9.248;2023-04-01T00:32:02;1.07;;;0.83;;
15246;SDS011;7726;48.820;9.248;2023-04-01T00:34:29;0.77;;;0.50;;
15246;SDS011;7726;48.820;9.248;2023-04-01T00:36:57;1.37;;;0.60;;
15246;SDS011;7726;48.820;9.248;2023-04-01T00:39:25;1.63;;;0.80;;
15246;SDS011;7726;48.820;9.248;2023-04-01T00:41:52;2.63;;;0.87;;
15246;SDS011;7726;48.820;9.248;2023-04-01T00:44:20;2.20;;;0.80;;
15246;SDS011;7726;48.820;9.248;2023-04-01T00:46:48;1.50;;;0.70;;
15246;SDS011;7726;48.820;9.248;2023-04-01T00:49:15;1.37;;;0.90;;
15246;SDS011;7726;48.820;9.248;2023-04-01T00:51:44;2.57;;;0.90;;
15246;SDS011;7726;48.820;9.248;2023-04-01T00:54:14;2.33;;;0.80;;
15246;SDS011;7726;48.820;9.248;2023-04-01T00:56:43;2.53;;;0.60;;
15246;SDS011;7726;48.820;9.248;2023-04-01T00:59:14;2.60;;;0.63;;
15246;SDS011;7726;48.820;9.248;2023-04-01T01:01:43;4.03;;;1.43;;
15246;SDS011;7726;48.820;9.248;2023-04-01T01:04:20;1.00;;;0.67;;
15246;SDS011;7726;48.820;9.248;2023-04-01T01:06:50;2.13;;;0.77;;
15246;SDS011;7726;48.820;9.248;2023-04-01T01:09:28;2.47;;;0.70;;
15246;SDS011;7726;48.820;9.248;2023-04-01T01:11:59;3.23;;;0.70;;
15246;SDS011;7726;48.820;9.248;2023-04-01T01:14:35;4.27;;;0.83;;
15246;SDS011;7726;48.820;9.248;2023-04-01T01:17:06;4.30;;;0.90;;
15246;SDS011;7726;48.820;9.248;2023-04-01T01:19:47;3.40;;;0.67;;
15246;SDS011;7726;48.820;9.248;2023-04-01T01:22:22;2.17;;;0.70;;
15246;SDS011;7726;48.820;9.248;2023-04-01T01:24:56;4.20;;;0.87;;
15246;SDS011;7726;48.820;9.248;2023-04-01T01:27:26;1.60;;;0.73;;
15246;SDS011;7726;48.820;9.248;2023-04-01T01:32:52;1.50;;;0.70;;
15246;SDS011;7726;48.820;9.248;2023-04-01T01:35:24;1.03;;;0.50;;
15246;SDS011;7726;48.820;9.248;2023-04-01T01:37:54;1.57;;;0.80;;
15246;SDS011;7726;48.820;9.248;2023-04-01T01:40:22;2.37;;;0.60;;
15246;SDS011;7726;48.820;9.248;2023-04-01T01:42:51;1.67;;;0.80;;
15246;SDS011;7726;48.820;9.248;2023-04-01T01:45:21;0.93;;;0.60;;
15246;SDS011;7726;48.820;9.248;2023-04-01T01:47:49;1.17;;;0.60;;
15246;SDS011;7726;48.820;9.248;2023-04-01T01:50:17;1.03;;;0.63;;
15246;SDS011;7726;48.820;9.248;2023-04-01T01:52:47;2.87;;;0.87;;
15246;SDS011;7726;48.820;9.248;2023-04-01T01:55:24;3.43;;;0.50;;
15246;SDS011;7726;48.820;9.248;2023-04-01T01:57:53;1.03;;;0.30;;
15246;SDS011;7726;48.820;9.248;2023-04-01T02:00:21;1.53;;;0.63;;
15246;SDS011;7726;48.820;9.248;2023-04-01T02:02:48;2.13;;;0.60;;
15246;SDS011;7726;48.820;9.248;2023-04-01T02:05:17;0.60;;;0.60;;
15246;SDS011;7726;48.820;9.248;2023-04-01T02:07:48;3.20;;;0.70;;
15246;SDS011;7726;48.820;9.248;2023-04-01T02:10:18;3.43;;;0.90;;
15246;SDS011;7726;48.820;9.248;2023-04-01T02:12:47;2.00;;;0.70;;
15246;SDS011;7726;48.820;9.248;2023-04-01T02:15:14;1.73;;;0.83;;
15246;SDS011;7726;48.820;9.248;2023-04-01T02:17:43;1.43;;;0.53;;
15246;SDS011;7726;48.820;9.248;2023-04-01T02:20:11;4.70;;;1.30;;
15246;SDS011;7726;48.820;9.248;2023-04-01T02:22:40;0.80;;;0.60;;
15246;SDS011;7726;48.820;9.248;2023-04-01T02:25:11;0.80;;;0.60;;
15246;SDS011;7726;48.820;9.248;2023-04-01T02:27:39;0.73;;;0.50;;
15246;SDS011;7726;48.820;9.248;2023-04-01T02:30:07;0.80;;;0.40;;
15246;SDS011;7726;48.820;9.248;2023-04-01T02:32:34;2.57;;;0.60;;
15246;SDS011;7726;48.820;9.248;2023-04-01T02:35:04;1.93;;;0.80;;
15246;SDS011;7726;48.820;9.248;2023-04-01T02:37:32;1.07;;;0.50;;
15246;SDS011;7726;48.820;9.248;2023-04-01T02:39:59;0.83;;;0.40;;
15246;SDS011;7726;48.820;9.248;2023-04-01T02:42:28;0.80;;;0.47;;
15246;SDS011;7726;48.820;9.248;2023-04-01T02:44:55;2.40;;;0.50;;
15246;SDS011;7726;48.820;9.248;2023-04-01T02:47:22;1.53;;;0.40;;
15246;SDS011;7726;48.820;9.248;2023-04-01T02:49:49;0.97;;;0.33;;
15246;SDS011;7726;48.820;9.248;2023-04-01T02:52:22;2.43;;;0.60;;
15246;SDS011;7726;48.820;9.248;2023-04-01T02:54:50;0.40;;;0.40;;
15246;SDS011;7726;48.820;9.248;2023-04-01T02:57:17;2.40;;;0.30;;
15246;SDS011;7726;48.820;9.248;2023-04-01T02:59:46;0.97;;;0.63;;
15246;SDS011;7726;48.820;9.248;2023-04-01T03:02:13;0.80;;;0.43;;
15246;SDS011;7726;48.820;9.248;2023-04-01T03:04:41;2.70;;;0.50;;
15246;SDS011;7726;48.820;9.248;2023-04-01T03:07:08;1.73;;;0.60;;
15246;SDS011;7726;48.820;9.248;2023-04-01T03:09:36;1.33;;;0.60;;
15246;SDS011;7726;48.820;9.248;2023-04-01T03:12:03;1.37;;;0.40;;
15246;SDS011;7726;48.820;9.248;2023-04-01T03:14:30;1.80;;;0.50;;
15246;SDS011;7726;48.820;9.248;2023-04-01T03:16:58;0.40;;;0.40;;
15246;SDS011;7726;48.820;9.248;2023-04-01T03:19:26;1.60;;;0.47;;
15246;SDS011;7726;48.820;9.248;2023-04-01T03:21:53;1.20;;;0.50;;
15246;SDS011;7726;48.820;9.248;2023-04-01T03:24:20;1.60;;;0.30;;
15246;SDS011;7726;48.820;9.248;2023-04-01T03:26:47;2.37;;;0.43;;
15246;SDS011;7726;48.820;9.248;2023-04-01T03:29:14;0.67;;;0.20;;
15246;SDS011;7726;48.820;9.248;2023-04-01T03:31:41;0.47;;;0.30;;
15246;SDS011;7726;48.820;9.248;2023-04-01T03:34:10;0.67;;;0.20;;
15246;SDS011;7726;48.820;9.248;2023-04-01T03:36:38;0.80;;;0.77;;
15246;SDS011;7726;48.820;9.248;2023-04-01T03:39:05;0.30;;;0.30;;
15246;SDS011;7726;48.820;9.248;2023-04-01T03:41:32;1.23;;;0.40;;
15246;SDS011;7726;48.820;9.248;2023-04-01T03:44:00;0.70;;;0.30;;
15246;SDS011;7726;48.820;9.248;2023-04-01T03:46:27;1.70;;;0.30;;
15246;SDS011;7726;48.820;9.248;2023-04-01T03:48:54;0.63;;;0.40;;
15246;SDS011;7726;48.820;9.248;2023-04-01T03:51:22;0.27;;;0.20;;
15246;SDS011;7726;48.820;9.248;2023-04-01T03:53:49;0.47;;;0.30;;
15246;SDS011;7726;48.820;9.248;2023-04-01T03:56:17;1.37;;;0.30;;
15246;SDS011;7726;48.820;9.248;2023-04-01T03:58:44;0.70;;;0.30;;
15246;SDS011;7726;48.820;9.248;2023-04-01T04:01:15;1.77;;;0.30;;
15246;SDS011;7726;48.820;9.248;2023-04-01T04:03:42;1.23;;;0.70;;
15246;SDS011;7726;48.820;9.248;2023-04-01T04:06:11;1.03;;;0.47;;
15246;SDS011;7726;48.820;9.248;2023-04-01T04:08:40;2.73;;;0.63;;
15246;SDS011;7726;48.820;9.248;2023-04-01T04:11:07;0.60;;;0.40;;
15246;SDS011;7726;48.820;9.248;2023-04-01T04:13:34;1.20;;;0.30;;
15246;SDS011;7726;48.820;9.248;2023-04-01T04:16:01;0.30;;;0.20;;
15246;SDS011;7726;48.820;9.248;2023-04-01T04:18:29;1.03;;;0.40;;
15246;SDS011;7726;48.820;9.248;2023-04-01T04:20:56;1.07;;;0.40;;
15246;SDS011;7726;48.820;9.248;2023-04-01T04:23:23;0.30;;;0.30;;
15246;SDS011;7726;48.820;9.248;2023-04-01T04:25:55;0.90;;;0.47;;
15246;SDS011;7726;48.820;9.248;2023-04-01T04:28:23;0.97;;;0.40;;
15246;SDS011;7726;48.820;9.248;2023-04-01T04:30:51;0.60;;;0.50;;
15246;SDS011;7726;48.820;9.248;2023-04-01T04:33:18;0.93;;;0.43;;
15246;SDS011;7726;48.820;9.248;2023-04-01T04:35:45;1.37;;;0.37;;
15246;SDS011;7726;48.820;9.248;2023-04-01T04:38:12;1.40;;;0.40;;
15246;SDS011;7726;48.820;9.248;2023-04-01T04:40:40;1.37;;;0.50;;
15246;SDS011;7726;48.820;9.248;2023-04-01T04:43:10;0.93;;;0.30;;
15246;SDS011;7726;48.820;9.248;2023-04-01T04:45:37;0.30;;;0.30;;
15246;SDS011;7726;48.820;9.248;2023-04-01T04:48:05;0.83;;;0.40;;
15246;SDS011;7726;48.820;9.248;2023-04-01T04:50:33;0.30;;;0.30;;
15246;SDS011;7726;48.820;9.248;2023-04-01T04:53:00;1.10;;;0.40;;
15246;SDS011;7726;48.820;9.248;2023-04-01T04:55:27;0.20;;;0.20;;
15246;SDS011;7726;48.820;9.248;2023-04-01T04:57:55;0.40;;;0.30;;
15246;SDS011;7726;48.820;9.248;2023-04-01T05:00:23;1.03;;;0.40;;
15246;SDS011;7726;48.820;9.248;2023-04-01T05:02:50;0.37;;;0.30;;
15246;SDS011;7726;48.820;9.248;2023-04-01T05:05:17;1.07;;;0.60;;
15246;SDS011;7726;48.820;9.248;2023-04-01T05:07:45;2.27;;;0.50;;
15246;SDS011;7726;48.820;9.248;2023-04-01T05:10:12;1.50;;;0.37;;
15246;SDS011;7726;48.820;9.248;2023-04-01T05:12:39;1.37;;;0.60;;
15246;SDS011;7726;48.820;9.248;2023-04-01T05:15:06;1.00;;;0.40;;
15246;SDS011;7726;48.820;9.248;2023-04-01T05:17:35;1.97;;;0.43;;
15246;SDS011;7726;48.820;9.248;2023-04-01T05:20:03;1.23;;;0.53;;
15246;SDS011;7726;48.820;9.248;2023-04-01T05:22:30;1.00;;;0.90;;
15246;SDS011;7726;48.820;9.248;2023-04-01T05:24:57;0.97;;;0.40;;
15246;SDS011;7726;48.820;9.248;2023-04-01T05:27:24;3.13;;;0.40;;
15246;SDS011;7726;48.820;9.248;2023-04-01T05:29:51;1.00;;;0.50;;
15246;SDS011;7726;48.820;9.248;2023-04-01T05:32:18;1.27;;;0.80;;
15246;SDS011;7726;48.820;9.248;2023-04-01T05:34:47;1.20;;;0.67;;
15246;SDS011;7726;48.820;9.248;2023-04-01T05:37:17;1.00;;;0.70;;
15246;SDS011;7726;48.820;9.248;2023-04-01T05:39:44;4.70;;;0.63;;
15246;SDS011;7726;48.820;9.248;2023-04-01T05:42:11;2.33;;;0.70;;
15246;SDS011;7726;48.820;9.248;2023-04-01T05:44:38;1.50;;;0.70;;
15246;SDS011;7726;48.820;9.248;2023-04-01T05:47:05;1.27;;;0.50;;
15246;SDS011;7726;48.820;9.248;2023-04-01T05:49:33;2.33;;;0.80;;
15246;SDS011;7726;48.820;9.248;2023-04-01T05:52:01;2.20;;;0.80;;
15246;SDS011;7726;48.820;9.248;2023-04-01T05:54:28;0.93;;;0.50;;
15246;SDS011;7726;48.820;9.248;2023-04-01T05:56:56;2.07;;;0.80;;
15246;SDS011;7726;48.820;9.248;2023-04-01T05:59:23;2.47;;;0.80;;
15246;SDS011;7726;48.820;9.248;2023-04-01T06:01:50;2.20;;;0.60;;
15246;SDS011;7726;48.820;9.248;2023-04-01T06:04:17;0.87;;;0.63;;
15246;SDS011;7726;48.820;9.248;2023-04-01T06:06:44;1.43;;;0.70;;
15246;SDS011;7726;48.820;9.248;2023-04-01T06:09:14;1.67;;;0.90;;
15246;SDS011;7726;48.820;9.248;2023-04-01T06:11:45;0.90;;;0.50;;
15246;SDS011;7726;48.820;9.248;2023-04-01T06:14:19;1.47;;;0.87;;
15246;SDS011;7726;48.820;9.248;2023-04-01T06:16:54;1.83;;;0.73;;
15246;SDS011;7726;48.820;9.248;2023-04-01T06:19:25;1.40;;;0.57;;
15246;SDS011;7726;48.820;9.248;2023-04-01T06:22:00;0.37;;;0.37;;
15246;SDS011;7726;48.820;9.248;2023-04-01T06:24:41;0.97;;;0.60;;
15246;SDS011;7726;48.820;9.248;2023-04-01T06:27:13;3.77;;;0.80;;
15246;SDS011;7726;48.820;9.248;2023-04-01T06:29:44;1.60;;;0.83;;
15246;SDS011;7726;48.820;9.248;2023-04-01T06:32:20;0.90;;;0.80;;
15246;SDS011;7726;48.820;9.248;2023-04-01T06:34:53;2.37;;;0.60;;
15246;SDS011;7726;48.820;9.248;2023-04-01T06:37:28;1.33;;;0.60;;
15246;SDS011;7726;48.820;9.248;2023-04-01T06:40:09;0.97;;;0.60;;
15246;SDS011;7726;48.820;9.248;2023-04-01T06:42:47;2.42;;;0.60;;
15246;SDS011;7726;48.820;9.248;2023-04-01T06:45:20;1.35;;;0.60;;
15246;SDS011;7726;48.820;9.248;2023-04-01T06:47:55;1.07;;;0.50;;
15246;SDS011;7726;48.820;9.248;2023-04-01T06:50:26;1.20;;;0.60;;
15246;SDS011;7726;48.820;9.248;2023-04-01T06:52:57;0.57;;;0.37;;
15246;SDS011;7726;48.820;9.248;2023-04-01T06:55:32;0.47;;;0.47;;
15246;SDS011;7726;48.820;9.248;2023-04-01T06:58:03;1.25;;;0.50;;
15246;SDS011;7726;48.820;9.248;2023-04-01T07:00:32;2.05;;;0.60;;
15246;SDS011;7726;48.820;9.248;2023-04-01T07:03:02;1.75;;;0.70;;
15246;SDS011;7726;48.820;9.248;2023-04-01T07:05:33;0.82;;;0.70;;
15246;SDS011;7726;48.820;9.248;2023-04-01T07:08:01;0.50;;;0.43;;
15246;SDS011;7726;48.820;9.248;2023-04-01T07:10:33;1.07;;;0.40;;
15246;SDS011;7726;48.820;9.248;2023-04-01T07:13:02;1.23;;;0.50;;
15246;SDS011;7726;48.820;9.248;2023-04-01T07:15:33;0.60;;;0.20;;
15246;SDS011;7726;48.820;9.248;2023-04-01T07:18:02;0.35;;;0.35;;
15246;SDS011;7726;48.820;9.248;2023-04-01T07:20:30;0.82;;;0.50;;
15246;SDS011;7726;48.820;9.248;2023-04-01T07:22:58;0.55;;;0.45;;
15246;SDS011;7726;48.820;9.248;2023-04-01T07:25:27;0.88;;;0.30;;
15246;SDS011;7726;48.820;9.248;2023-04-01T07:27:59;0.90;;;0.40;;
15246;SDS011;7726;48.820;9.248;2023-04-01T07:30:28;1.67;;;0.70;;
15246;SDS011;7726;48.820;9.248;2023-04-01T07:33:00;0.45;;;0.40;;
15246;SDS011;7726;48.820;9.248;2023-04-01T07:35:32;1.00;;;0.57;;
15246;SDS011;7726;48.820;9.248;2023-04-01T07:38:07;1.42;;;0.50;;
15246;SDS011;7726;48.820;9.248;2023-04-01T07:40:38;1.27;;;0.40;;
15246;SDS011;7726;48.820;9.248;2023-04-01T07:43:12;1.98;;;0.70;;
15246;SDS011;7726;48.820;9.248;2023-04-01T07:45:42;0.93;;;0.57;;
15246;SDS011;7726;48.820;9.248;2023-04-01T07:48:18;1.00;;;0.50;;
15246;SDS011;7726;48.820;9.248;2023-04-01T07:50:47;0.68;;;0.50;;
15246;SDS011;7726;48.820;9.248;2023-04-01T07:53:19;0.82;;;0.60;;
15246;SDS011;7726;48.820;9.248;2023-04-01T07:55:50;1.67;;;0.77;;
15246;SDS011;7726;48.820;9.248;2023-04-01T07:58:24;2.00;;;0.85;;
15246;SDS011;7726;48.820;9.248;2023-04-01T08:00:56;1.83;;;0.65;;
15246;SDS011;7726;48.820;9.248;2023-04-01T08:03:38;1.23;;;0.50;;
15246;SDS011;7726;48.820;9.248;2023-04-01T08:06:11;0.70;;;0.50;;
15246;SDS011;7726;48.820;9.248;2023-04-01T08:08:44;1.55;;;0.52;;
15246;SDS011;7726;48.820;9.248;2023-04-01T08:11:16;1.08;;;0.60;;
15246;SDS011;7726;48.820;9.248;2023-04-01T08:13:51;1.17;;;0.60;;
15246;SDS011;7726;48.820;9.248;2023-04-01T08:16:23;4.30;;;0.73;;
15246;SDS011;7726;48.820;9.248;2023-04-01T08:18:54;1.30;;;0.65;;
15246;SDS011;7726;48.820;9.248;2023-04-01T08:21:27;1.70;;;0.80;;
15246;SDS011;7726;48.820;9.248;2023-04-01T08:23:55;1.48;;;0.98;;
15246;SDS011;7726;48.820;9.248;2023-04-01T08:26:26;1.90;;;1.13;;
15246;SDS011;7726;48.820;9.248;2023-04-01T08:28:57;0.60;;;0.60;;
15246;SDS011;7726;48.820;9.248;2023-04-01T08:31:29;0.82;;;0.60;;
15246;SDS011;7726;48.820;9.248;2023-04-01T08:33:57;1.80;;;0.50;;
15246;SDS011;7726;48.820;9.248;2023-04-01T08:36:24;1.90;;;0.60;;
15246;SDS011;7726;48.820;9.248;2023-04-01T08:38:54;1.08;;;0.50;;
15246;SDS011;7726;48.820;9.248;2023-04-01T08:41:27;0.43;;;0.40;;
15246;SDS011;7726;48.820;9.248;2023-04-01T08:44:04;1.05;;;0.50;;
15246;SDS011;7726;48.820;9.248;2023-04-01T08:46:42;1.17;;;0.70;;
15246;SDS011;7726;48.820;9.248;2023-04-01T08:49:16;0.55;;;0.35;;
15246;SDS011;7726;48.820;9.248;2023-04-01T08:51:53;0.75;;;0.57;;
15246;SDS011;7726;48.820;9.248;2023-04-01T08:57:15;1.15;;;0.80;;
15246;SDS011;7726;48.820;9.248;2023-04-01T09:00:03;1.77;;;0.90;;
15246;SDS011;7726;48.820;9.248;2023-04-01T09:02:39;1.40;;;0.60;;
15246;SDS011;7726;48.820;9.248;2023-04-01T09:05:22;3.30;;;0.68;;
15246;SDS011;7726;48.820;9.248;2023-04-01T09:07:55;1.03;;;0.40;;
15246;SDS011;7726;48.820;9.248;2023-04-01T09:10:36;1.23;;;0.75;;
15246;SDS011;7726;48.820;9.248;2023-04-01T09:13:10;1.42;;;0.47;;
15246;SDS011;7726;48.820;9.248;2023-04-01T09:18:38;0.70;;;0.50;;
15246;SDS011;7726;48.820;9.248;2023-04-01T09:21:19;1.17;;;0.50;;
15246;SDS011;7726;48.820;9.248;2023-04-01T09:23:58;1.03;;;0.70;;
15246;SDS011;7726;48.820;9.248;2023-04-01T09:26:38;1.70;;;0.60;;
15246;SDS011;7726;48.820;9.248;2023-04-01T09:29:13;2.30;;;0.63;;
15246;SDS011;7726;48.820;9.248;2023-04-01T09:31:49;2.00;;;0.60;;
15246;SDS011;7726;48.820;9.248;2023-04-01T09:34:32;1.02;;;0.70;;
15246;SDS011;7726;48.820;9.248;2023-04-01T09:37:08;1.08;;;0.80;;
15246;SDS011;7726;48.820;9.248;2023-04-01T09:39:42;3.63;;;0.60;;
15246;SDS011;7726;48.820;9.248;2023-04-01T09:42:15;0.40;;;0.30;;
15246;SDS011;7726;48.820;9.248;2023-04-01T09:44:52;0.20;;;0.20;;
15246;SDS011;7726;48.820;9.248;2023-04-01T09:47:26;0.75;;;0.50;;
15246;SDS011;7726;48.820;9.248;2023-04-01T09:50:14;0.38;;;0.38;;
15246;SDS011;7726;48.820;9.248;2023-04-01T09:52:44;0.63;;;0.55;;
15246;SDS011;7726;48.820;9.248;2023-04-01T09:55:19;0.30;;;0.30;;
15246;SDS011;7726;48.820;9.248;2023-04-01T10:03:33;0.43;;;0.40;;
15246;SDS011;7726;48.820;9.248;2023-04-01T10:06:10;0.40;;;0.40;;
15246;SDS011;7726;48.820;9.248;2023-04-01T10:08:59;0.20;;;0.20;;
15246;SDS011;7726;48.820;9.248;2023-04-01T10:14:22;0.13;;;0.13;;
15246;SDS011;7726;48.820;9.248;2023-04-01T10:17:16;0.43;;;0.30;;
15246;SDS011;7726;48.820;9.248;2023-04-01T10:22:41;0.50;;;0.22;;
15246;SDS011;7726;48.820;9.248;2023-04-01T10:25:23;0.65;;;0.30;;
15246;SDS011;7726;48.820;9.248;2023-04-01T10:27:59;1.52;;;0.40;;
15246;SDS011;7726;48.820;9.248;2023-04-01T10:30:45;0.55;;;0.28;;
15246;SDS011;7726;48.820;9.248;2023-04-01T10:44:53;0.35;;;0.35;;
15246;SDS011;7726;48.820;9.248;2023-04-01T10:50:21;0.20;;;0.20;;
15246;SDS011;7726;48.820;9.248;2023-04-01T10:53:02;0.30;;;0.30;;
15246;SDS011;7726;48.820;9.248;2023-04-01T10:55:37;0.47;;;0.43;;
15246;SDS011;7726;48.820;9.248;2023-04-01T10:58:20;1.85;;;0.70;;
15246;SDS011;7726;48.820;9.248;2023-04-01T11:01:05;0.35;;;0.35;;
15246;SDS011;7726;48.820;9.248;2023-04-01T11:09:27;0.30;;;0.30;;
15246;SDS011;7726;48.820;9.248;2023-04-01T11:12:08;0.55;;;0.45;;
15246;SDS011;7726;48.820;9.248;2023-04-01T11:20:16;0.52;;;0.52;;
15246;SDS011;7726;48.820;9.248;2023-04-01T11:22:52;0.30;;;0.30;;
15246;SDS011;7726;48.820;9.248;2023-04-01T11:25:29;0.28;;;0.28;;
15246;SDS011;7726;48.820;9.248;2023-04-01T11:28:10;0.60;;;0.60;;
15246;SDS011;7726;48.820;9.248;2023-04-01T11:30:43;0.65;;;0.50;;
15246;SDS011;7726;48.820;9.248;2023-04-01T11:33:16;0.32;;;0.32;;
15246;SDS011;7726;48.820;9.248;2023-04-01T11:35:55;0.75;;;0.22;;
15246;SDS011;7726;48.820;9.248;2023-04-01T11:38:29;0.28;;;0.28;;
15246;SDS011;7726;48.820;9.248;2023-04-01T11:40:59;0.40;;;0.40;;
15246;SDS011;7726;48.820;9.248;2023-04-01T11:43:32;0.32;;;0.20;;
15246;SDS011;7726;48.820;9.248;2023-04-01T11:46:03;0.38;;;0.38;;
15246;SDS011;7726;48.820;9.248;2023-04-01T11:48:40;0.22;;;0.20;;
15246;SDS011;7726;48.820;9.248;2023-04-01T11:51:25;1.08;;;0.32;;
15246;SDS011;7726;48.820;9.248;2023-04-01T11:53:57;0.10;;;0.10;;
15246;SDS011;7726;48.820;9.248;2023-04-01T11:56:34;0.30;;;0.30;;
15246;SDS011;7726;48.820;9.248;2023-04-01T11:59:12;1.35;;;0.30;;
15246;SDS011;7726;48.820;9.248;2023-04-01T12:01:44;0.30;;;0.30;;
15246;SDS011;7726;48.820;9.248;2023-04-01T12:04:19;0.20;;;0.20;;
15246;SDS011;7726;48.820;9.248;2023-04-01T12:06:52;0.20;;;0.20;;
15246;SDS011;7726;48.820;9.248;2023-04-01T12:09:25;0.30;;;0.30;;
15246;SDS011;7726;48.820;9.248;2023-04-01T12:11:58;0.10;;;0.10;;
15246;SDS011;7726;48.820;9.248;2023-04-01T12:14:31;0.28;;;0.28;;
15246;SDS011;7726;48.820;9.248;2023-04-01T12:17:02;1.00;;;0.30;;
15246;SDS011;7726;48.820;9.248;2023-04-01T12:19:33;0.40;;;0.30;;
15246;SDS011;7726;48.820;9.248;2023-04-01T12:22:17;0.40;;;0.40;;
15246;SDS011;7726;48.820;9.248;2023-04-01T12:24:52;0.20;;;0.20;;
15246;SDS011;7726;48.820;9.248;2023-04-01T12:27:26;0.38;;;0.20;;
15246;SDS011;7726;48.820;9.248;2023-04-01T12:32:45;0.40;;;0.40;;
15246;SDS011;7726;48.820;9.248;2023-04-01T12:35:16;0.22;;;0.22;;
15246;SDS011;7726;48.820;9.248;2023-04-01T12:37:47;0.82;;;0.22;;
15246;SDS011;7726;48.820;9.248;2023-04-01T12:40:19;0.20;;;0.20;;
15246;SDS011;7726;48.820;9.248;2023-04-01T12:45:30;0.38;;;0.38;;
15246;SDS011;7726;48.820;9.248;2023-04-01T12:50:53;0.43;;;0.20;;
15246;SDS011;7726;48.820;9.248;2023-04-01T12:53:30;0.10;;;0.10;;
15246;SDS011;7726;48.820;9.248;2023-04-01T12:56:04;0.10;;;0.10;;
15246;SDS011;7726;48.820;9.248;2023-04-01T13:01:23;0.45;;;0.20;;
15246;SDS011;7726;48.820;9.248;2023-04-01T13:04:20;0.43;;;0.17;;
15246;SDS011;7726;48.820;9.248;2023-04-01T13:06:55;0.20;;;0.20;;
15246;SDS011;7726;48.820;9.248;2023-04-01T13:09:29;0.55;;;0.20;;
15246;SDS011;7726;48.820;9.248;2023-04-01T13:12:04;0.15;;;0.15;;
15246;SDS011;7726;48.820;9.248;2023-04-01T13:14:42;0.30;;;0.30;;
15246;SDS011;7726;48.820;9.248;2023-04-01T13:17:13;0.30;;;0.30;;
15246;SDS011;7726;48.820;9.248;2023-04-01T13:19:45;0.30;;;0.30;;
15246;SDS011;7726;48.820;9.248;2023-04-01T13:22:15;0.40;;;0.40;;
15246;SDS011;7726;48.820;9.248;2023-04-01T13:24:47;0.22;;;0.22;;
15246;SDS011;7726;48.820;9.248;2023-04-01T13:27:17;0.20;;;0.20;;
15246;SDS011;7726;48.820;9.248;2023-04-01T13:29:46;0.30;;;0.15;;
15246;SDS011;7726;48.820;9.248;2023-04-01T13:32:18;0.20;;;0.20;;
15246;SDS011;7726;48.820;9.248;2023-04-01T13:34:49;0.10;;;0.10;;
15246;SDS011;7726;48.820;9.248;2023-04-01T13:37:29;0.32;;;0.20;;
15246;SDS011;7726;48.820;9.248;2023-04-01T13:40:04;0.68;;;0.20;;
15246;SDS011;7726;48.820;9.248;2023-04-01T13:42:41;0.10;;;0.10;;
15246;SDS011;7726;48.820;9.248;2023-04-01T13:45:13;0.40;;;0.40;;
15246;SDS011;7726;48.820;9.248;2023-04-01T13:47:46;0.20;;;0.20;;
15246;SDS011;7726;48.820;9.248;2023-04-01T13:50:23;1.08;;;0.30;;
15246;SDS011;7726;48.820;9.248;2023-04-01T13:53:15;0.00;;;0.00;;
15246;SDS011;7726;48.820;9.248;2023-04-01T13:55:49;0.10;;;0.10;;
15246;SDS011;7726;48.820;9.248;2023-04-01T13:58:23;0.10;;;0.10;;
15246;SDS011;7726;48.820;9.248;2023-04-01T14:01:00;0.30;;;0.30;;
15246;SDS011;7726;48.820;9.248;2023-04-01T14:03:32;0.10;;;0.10;;
15246;SDS011;7726;48.820;9.248;2023-04-01T14:06:10;0.75;;;0.15;;
15246;SDS011;7726;48.820;9.248;2023-04-01T14:08:42;0.10;;;0.10;;
15246;SDS011;7726;48.820;9.248;2023-04-01T14:11:19;0.20;;;0.20;;
15246;SDS011;7726;48.820;9.248;2023-04-01T14:13:56;0.20;;;0.20;;
15246;SDS011;7726;48.820;9.248;2023-04-01T14:19:11;0.10;;;0.10;;
15246;SDS011;7726;48.820;9.248;2023-04-01T14:21:40;0.20;;;0.20;;
15246;SDS011;7726;48.820;9.248;2023-04-01T14:24:18;0.50;;;0.20;;
15246;SDS011;7726;48.820;9.248;2023-04-01T14:26:59;0.20;;;0.20;;
15246;SDS011;7726;48.820;9.248;2023-04-01T14:29:32;0.55;;;0.38;;
15246;SDS011;7726;48.820;9.248;2023-04-01T14:32:06;0.10;;;0.10;;
15246;SDS011;7726;48.820;9.248;2023-04-01T14:34:38;0.22;;;0.10;;
15246;SDS011;7726;48.820;9.248;2023-04-01T14:37:10;0.15;;;0.15;;
15246;SDS011;7726;48.820;9.248;2023-04-01T14:39:44;0.30;;;0.28;;
15246;SDS011;7726;48.820;9.248;2023-04-01T14:42:21;0.30;;;0.30;;
15246;SDS011;7726;48.820;9.248;2023-04-01T14:45:07;0.20;;;0.20;;
15246;SDS011;7726;48.820;9.248;2023-04-01T14:47:49;0.30;;;0.30;;
15246;SDS011;7726;48.820;9.248;2023-04-01T14:50:19;0.20;;;0.20;;
15246;SDS011;7726;48.820;9.248;2023-04-01T14:52:51;0.32;;;0.32;;
15246;SDS011;7726;48.820;9.248;2023-04-01T14:55:27;0.10;;;0.10;;
15246;SDS011;7726;48.820;9.248;2023-04-01T14:58:09;0.15;;;0.15;;
15246;SDS011;7726;48.820;9.248;2023-04-01T15:00:40;0.20;;;0.20;;
15246;SDS011;7726;48.820;9.248;2023-04-01T15:03:11;0.25;;;0.25;;
15246;SDS011;7726;48.820;9.248;2023-04-01T15:05:43;0.30;;;0.30;;
15246;SDS011;7726;48.820;9.248;2023-04-01T15:08:18;0.28;;;0.28;;
15246;SDS011;7726;48.820;9.248;2023-04-01T15:13:46;0.40;;;0.40;;
15246;SDS011;7726;48.820;9.248;2023-04-01T15:16:20;0.30;;;0.30;;
15246;SDS011;7726;48.820;9.248;2023-04-01T15:18:51;0.20;;;0.20;;
15246;SDS011;7726;48.820;9.248;2023-04-01T15:21:24;0.32;;;0.30;;
15246;SDS011;7726;48.820;9.248;2023-04-01T15:23:57;0.47;;;0.28;;
15246;SDS011;7726;48.820;9.248;2023-04-01T15:26:36;0.40;;;0.40;;
15246;SDS011;7726;48.820;9.248;2023-04-01T15:29:16;0.50;;;0.50;;
15246;SDS011;7726;48.820;9.248;2023-04-01T15:31:46;0.60;;;0.60;;
15246;SDS011;7726;48.820;9.248;2023-04-01T15:34:20;0.30;;;0.30;;
15246;SDS011;7726;48.820;9.248;2023-04-01T15:36:51;0.20;;;0.20;;
15246;SDS011;7726;48.820;9.248;2023-04-01T15:39:21;0.10;;;0.10;;
15246;SDS011;7726;48.820;9.248;2023-04-01T15:41:55;0.28;;;0.28;;
15246;SDS011;7726;48.820;9.248;2023-04-01T15:44:33;0.55;;;0.55;;
15246;SDS011;7726;48.820;9.248;2023-04-01T15:47:05;0.25;;;0.25;;
15246;SDS011;7726;48.820;9.248;2023-04-01T15:49:43;0.60;;;0.30;;
15246;SDS011;7726;48.820;9.248;2023-04-01T15:52:14;1.40;;;0.50;;
15246;SDS011;7726;48.820;9.248;2023-04-01T15:54:55;0.50;;;0.50;;
15246;SDS011;7726;48.820;9.248;2023-04-01T15:57:25;0.55;;;0.32;;
15246;SDS011;7726;48.820;9.248;2023-04-01T15:59:57;0.28;;;0.28;;
15246;SDS011;7726;48.820;9.248;2023-04-01T16:02:30;0.30;;;0.30;;
15246;SDS011;7726;48.820;9.248;2023-04-01T16:04:59;0.20;;;0.20;;
15246;SDS011;7726;48.820;9.248;2023-04-01T16:07:42;0.25;;;0.13;;
15246;SDS011;7726;48.820;9.248;2023-04-01T16:10:16;0.30;;;0.30;;
15246;SDS011;7726;48.820;9.248;2023-04-01T16:12:49;0.30;;;0.30;;
15246;SDS011;7726;48.820;9.248;2023-04-01T16:15:24;0.40;;;0.30;;
15246;SDS011;7726;48.820;9.248;2023-04-01T16:17:59;0.75;;;0.45;;
15246;SDS011;7726;48.820;9.248;2023-04-01T16:20:35;0.10;;;0.10;;
15246;SDS011;7726;48.820;9.248;2023-04-01T16:23:10;1.02;;;0.50;;
15246;SDS011;7726;48.820;9.248;2023-04-01T16:25:41;0.40;;;0.40;;
15246;SDS011;7726;48.820;9.248;2023-04-01T16:28:22;0.50;;;0.50;;
15246;SDS011;7726;48.820;9.248;2023-04-01T16:30:57;0.65;;;0.60;;